Rosburg, Washington
Current Conditions -  °F | °C
As of 8:55 AM on Wednesday 26 Nov 2014 (Local Time) from KAST Reporting Station
Overcast Overcast  
Wind Chill: 55°   Ceiling: 600
Heat Index: 55°   Visibility: 10mi
Dew Point: 53°   Wind: 5mph
Humidity: 93%   Direction: 140°SE
Pressure: 30.13"   Gusts: NA
Location:  46.33°N, 123.64°W
Report Text: KAST 261655Z AUTO 14004KT 10SM OVC006 13/12 A3013 RMK AO2 SLP203 T01280117
Loading
Personal Weather Stations






























Interactive Weather Map New forecast layout! Learn more

10-Day Weather Forecast

Advertisements
Track Severe Weather on mobile